Time;durP1;ratioP1;P1;durP2;ratioP2;P2;SDS_P1;SDS_P2;PMS_P1;PMS_P2;Temp;Humidity;BMP_temperature;BMP_pressure;BME280_temperature;BME280_humidity;BME280_pressure;Samples;Min_cycle;Max_cycle;Signal;HPM_P1;HPM_P2
2021/07/09 00:01:25;;;;;;;6.30;4.43;;;;;;;23.16;56.77;101686.06;6153928;23;20088;-80
2021/07/09 00:03:50;;;;;;;10.73;6.10;;;;;;;23.10;57.31;101684.09;6154170;23;20029;-81
2021/07/09 00:06:19;;;;;;;7.75;5.53;;;;;;;23.12;57.68;101665.53;6127360;23;20010;-81
2021/07/09 00:08:45;;;;;;;6.00;5.40;;;;;;;23.26;57.47;101663.75;6154007;23;20006;-81
2021/07/09 00:11:10;;;;;;;11.48;5.85;;;;;;;23.31;57.25;101666.78;6153683;23;20079;-80
2021/07/09 00:13:36;;;;;;;11.50;5.63;;;;;;;23.26;57.48;101663.75;6153942;23;20120;-80
2021/07/09 00:16:01;;;;;;;9.00;6.70;;;;;;;23.39;57.17;101655.66;6154118;23;20329;-80
2021/07/09 00:18:27;;;;;;;10.00;6.97;;;;;;;23.34;57.44;101655.41;6153855;23;20032;-80
2021/07/09 00:20:52;;;;;;;11.82;7.80;;;;;;;23.24;57.54;101654.91;6127293;23;20012;-80
2021/07/09 00:23:18;;;;;;;10.65;9.65;;;;;;;23.16;57.28;101651.22;6154052;23;20009;-80
2021/07/09 00:25:43;;;;;;;11.13;9.10;;;;;;;23.27;57.13;101644.38;6127321;23;20017;-81
2021/07/09 00:28:08;;;;;;;14.07;9.25;;;;;;;23.27;57.37;101644.38;6153913;23;20060;-81
2021/07/09 00:30:34;;;;;;;13.82;9.80;;;;;;;23.21;57.48;101641.56;6153456;23;20337;-80
2021/07/09 00:32:59;;;;;;;10.68;8.20;;;;;;;23.22;57.65;101644.09;6127171;23;20044;-80
2021/07/09 00:35:25;;;;;;;11.63;8.80;;;;;;;23.08;57.85;101636.78;6154191;23;20016;-81
2021/07/09 00:37:50;;;;;;;10.02;8.95;;;;;;;22.94;58.26;101631.19;6153593;23;20001;-81
2021/07/09 00:40:17;;;;;;;14.35;10.60;;;;;;;22.94;58.47;101622.94;6153777;23;20001;-81
2021/07/09 00:42:43;;;;;;;15.10;10.88;;;;;;;22.87;58.97;101630.25;6153222;23;20088;-80
2021/07/09 00:45:10;;;;;;;21.67;12.60;;;;;;;22.79;59.35;101635.00;6153538;23;20016;-81
2021/07/09 00:47:36;;;;;;;16.83;12.02;;;;;;;22.79;59.28;101626.78;6126611;23;20346;-80
2021/07/09 00:50:03;;;;;;;17.10;11.93;;;;;;;22.82;59.09;101623.63;6126894;23;20027;-80
2021/07/09 00:52:29;;;;;;;14.32;11.48;;;;;;;22.76;59.20;101624.41;6127447;23;20013;-81
2021/07/09 00:54:54;;;;;;;15.00;11.45;;;;;;;22.77;59.10;101629.69;6126658;23;20097;-80
2021/07/09 00:57:20;;;;;;;18.63;12.75;;;;;;;22.74;58.70;101630.06;6127368;23;20435;-80
2021/07/09 00:59:46;;;;;;;15.88;10.45;;;;;;;22.74;58.65;101626.50;6152835;23;20060;-80
2021/07/09 01:02:12;;;;;;;16.45;12.80;;;;;;;22.59;58.68;101623.78;6153386;23;20080;-80
2021/07/09 01:04:37;;;;;;;17.63;13.23;;;;;;;22.34;59.30;101620.53;6126787;23;20013;-80
2021/07/09 01:07:03;;;;;;;15.57;12.48;;;;;;;22.44;59.17;101627.44;6153517;23;20009;-80
2021/07/09 01:09:29;;;;;;;18.80;13.68;;;;;;;22.44;59.08;101630.19;6153497;23;20025;-80
2021/07/09 01:11:55;;;;;;;18.88;14.25;;;;;;;22.36;59.56;101629.44;6126299;23;20431;-80
2021/07/09 01:14:21;;;;;;;19.10;14.57;;;;;;;22.38;59.27;101628.22;6126698;23;20015;-80
2021/07/09 01:16:47;;;;;;;16.77;13.52;;;;;;;22.31;59.58;101634.63;6153029;23;20029;-80
2021/07/09 01:19:15;;;;;;;17.35;13.40;;;;;;;22.27;59.80;101636.91;6126545;23;20009;-80
2021/07/09 01:21:42;;;;;;;20.58;15.20;;;;;;;22.19;59.85;101642.47;6126771;23;20009;-80
2021/07/09 01:24:09;;;;;;;16.98;14.35;;;;;;;22.33;59.49;101641.63;6153309;23;20442;-81
2021/07/09 01:26:35;;;;;;;18.02;14.70;;;;;;;22.30;59.55;101647.50;6126763;23;20010;-80
2021/07/09 01:29:01;;;;;;;17.40;15.60;;;;;;;22.29;59.50;101643.06;6153273;23;20029;-80
2021/07/09 01:31:26;;;;;;;14.98;12.52;;;;;;;22.36;59.40;101638.50;6153301;23;20036;-80
2021/07/09 01:33:52;;;;;;;15.48;13.35;;;;;;;22.30;59.49;101642.00;6153316;23;20005;-80
2021/07/09 01:36:18;;;;;;;15.35;13.00;;;;;;;22.30;59.30;101636.53;6126442;23;20060;-80
2021/07/09 01:38:44;;;;;;;12.52;10.82;;;;;;;22.22;59.51;101637.50;6153029;23;20006;-80
2021/07/09 01:41:09;;;;;;;14.27;11.20;;;;;;;22.12;60.23;101641.53;6152823;23;20029;-80
2021/07/09 01:43:35;;;;;;;17.92;12.00;;;;;;;22.03;60.39;101644.34;6153060;23;20131;-80
2021/07/09 01:46:00;;;;;;;13.23;11.82;;;;;;;21.91;60.97;101640.38;6152584;23;20429;-80
2021/07/09 01:48:25;;;;;;;15.70;12.23;;;;;;;21.81;61.34;101642.56;6152497;23;20008;-81
2021/07/09 01:50:51;;;;;;;16.17;12.73;;;;;;;21.81;61.53;101650.78;6152940;23;20092;-80
2021/07/09 01:53:17;;;;;;;15.40;11.98;;;;;;;21.80;61.53;101649.94;6152962;23;20036;-80
2021/07/09 01:55:42;;;;;;;17.75;14.50;;;;;;;21.74;61.50;101656.16;6152965;23;20427;-81
2021/07/09 01:58:08;;;;;;;16.88;14.35;;;;;;;21.83;61.17;101664.28;6126252;23;20013;-81
2021/07/09 02:00:34;;;;;;;12.73;11.30;;;;;;;21.95;60.73;101662.78;6152811;23;20307;-80
2021/07/09 02:02:59;;;;;;;15.40;11.60;;;;;;;21.95;60.89;101651.84;6152774;23;20414;-80
2021/07/09 02:05:25;;;;;;;20.67;14.73;;;;;;;21.81;61.29;101645.31;6126096;23;20002;-80
2021/07/09 02:07:56;;;;;;;16.67;14.57;;;;;;;21.77;61.17;101642.09;6126427;23;20009;-80
2021/07/09 02:10:23;;;;;;;;;;;;;;;21.62;61.81;101645.84;6153452;23;20060;-80
2021/07/09 02:12:52;;;;;;;17.73;13.70;;;;;;;21.71;61.28;101650.22;6125529;23;19915;-80
2021/07/09 02:15:18;;;;;;;22.55;14.00;;;;;;;21.68;60.98;101642.38;6152682;23;20012;-80
2021/07/09 02:17:43;;;;;;;14.25;11.27;;;;;;;21.80;60.97;101640.88;6126324;23;20002;-80
2021/07/09 02:20:12;;;;;;;12.27;10.38;;;;;;;21.78;61.15;101638.31;6152589;23;20080;-80
2021/07/09 02:22:37;;;;;;;15.75;12.23;;;;;;;21.73;61.49;101642.63;6126135;23;20009;-80
2021/07/09 02:25:05;;;;;;;16.52;14.80;;;;;;;21.68;61.72;101634.16;6152988;23;20043;-80
2021/07/09 02:27:36;;;;;;;24.52;15.23;;;;;;;21.65;62.67;101646.31;6152117;23;20006;-80
2021/07/09 02:30:04;;;;;;;19.37;15.20;;;;;;;21.44;63.56;101648.94;6152106;23;20088;-80
2021/07/09 02:32:29;;;;;;;17.42;14.55;;;;;;;21.65;62.68;101645.47;6125856;23;20377;-80
2021/07/09 02:34:54;;;;;;;16.95;12.07;;;;;;;21.77;62.62;101646.72;6125782;23;20029;-80
2021/07/09 02:37:20;;;;;;;18.33;13.93;;;;;;;21.67;62.62;101641.53;6152672;23;20073;-80
2021/07/09 02:39:45;;;;;;;25.85;15.20;;;;;;;21.66;63.11;101638.97;6151984;23;20012;-80
2021/07/09 02:42:10;;;;;;;16.33;14.13;;;;;;;21.75;62.42;101635.09;6125864;23;20017;-80
2021/07/09 02:44:36;;;;;;;17.35;15.40;;;;;;;21.79;62.13;101636.41;6151920;23;20020;-80
2021/07/09 02:47:02;;;;;;;17.02;13.45;;;;;;;21.76;62.41;101636.78;6152117;23;20033;-80
2021/07/09 02:49:28;;;;;;;18.27;13.30;;;;;;;21.83;62.14;101637.75;6152105;23;20386;-80
2021/07/09 02:51:54;;;;;;;18.92;15.27;;;;;;;21.85;61.97;101635.66;6152819;23;20033;-80
2021/07/09 02:54:19;;;;;;;12.95;11.65;;;;;;;21.92;61.57;101639.38;6126342;23;20064;-80
2021/07/09 02:56:45;;;;;;;15.02;11.30;;;;;;;21.82;61.52;101643.41;6152644;23;20010;-80
2021/07/09 02:59:11;;;;;;;16.33;13.48;;;;;;;21.69;61.67;101631.22;6152188;23;20041;-80
2021/07/09 03:01:40;;;;;;;18.25;14.07;;;;;;;21.67;61.92;101629.69;6125916;23;20009;-80
2021/07/09 03:04:12;;;;;;;19.60;13.50;;;;;;;21.76;61.62;101625.84;6151989;23;20044;-80
2021/07/09 03:06:39;;;;;;;17.80;13.27;;;;;;;21.75;61.64;101622.25;6152115;23;20002;-80
2021/07/09 03:09:06;;;;;;;13.95;10.85;;;;;;;21.84;61.55;101611.22;6125782;23;20009;-80
2021/07/09 03:11:32;;;;;;;14.70;13.13;;;;;;;21.83;62.00;101613.13;6151708;23;20037;-80
2021/07/09 03:13:58;;;;;;;14.43;11.05;;;;;;;21.87;61.79;101613.56;6152383;23;20021;-80
2021/07/09 03:16:23;;;;;;;14.00;11.27;;;;;;;21.86;61.82;101618.22;6152489;23;20406;-80
2021/07/09 03:18:48;;;;;;;18.20;14.63;;;;;;;21.74;61.99;101623.31;6151792;23;20395;-80
2021/07/09 03:21:14;;;;;;;21.40;14.93;;;;;;;21.66;63.47;101622.53;6152255;23;20316;-80
2021/07/09 03:23:39;;;;;;;20.30;14.70;;;;;;;21.72;63.38;101627.25;6152120;23;20032;-80
2021/07/09 03:26:05;;;;;;;16.38;14.18;;;;;;;21.81;63.03;101617.91;6154130;23;20010;-80
2021/07/09 03:28:30;;;;;;;21.52;14.98;;;;;;;21.55;63.92;101618.38;6127110;23;20009;-80
2021/07/09 03:30:55;;;;;;;18.42;16.55;;;;;;;21.18;64.52;101625.53;6153887;23;20014;-80
2021/07/09 03:33:21;;;;;;;17.25;15.43;;;;;;;21.22;64.60;101626.00;6127918;23;20342;-80
2021/07/09 03:35:46;;;;;;;24.48;16.15;;;;;;;21.34;64.04;101621.78;6154219;23;20018;-80
2021/07/09 03:38:12;;;;;;;22.75;16.90;;;;;;;21.50;63.30;101624.41;6127473;23;20092;-80
2021/07/09 03:40:37;;;;;;;22.33;15.13;;;;;;;21.65;62.56;101626.31;6153989;23;20037;-80
2021/07/09 03:43:02;;;;;;;27.67;17.25;;;;;;;21.49;63.10;101621.88;6154145;23;20032;-80
2021/07/09 03:45:28;;;;;;;21.10;18.98;;;;;;;21.52;62.84;101619.59;6153877;23;20025;-80
2021/07/09 03:47:53;;;;;;;23.90;17.58;;;;;;;21.58;62.69;101626.22;6127457;23;20001;-80
2021/07/09 03:50:19;;;;;;;24.55;17.42;;;;;;;21.60;62.47;101629.59;6127267;23;20005;-80
2021/07/09 03:52:44;;;;;;;17.35;15.48;;;;;;;21.57;62.77;101628.09;6127562;23;20423;-80
2021/07/09 03:55:10;;;;;;;20.95;18.33;;;;;;;21.67;62.43;101626.97;6127357;23;20333;-80
2021/07/09 03:57:36;;;;;;;16.75;15.00;;;;;;;21.68;62.65;101625.94;6154381;23;20002;-81
2021/07/09 04:00:07;;;;;;;23.65;17.25;;;;;;;21.66;62.65;101625.28;6153806;23;20045;-80
2021/07/09 04:02:32;;;;;;;19.35;17.25;;;;;;;21.71;62.59;101636.53;6154822;23;20014;-80
2021/07/09 04:04:57;;;;;;;21.20;16.27;;;;;;;21.76;62.66;101634.94;6153905;23;20062;-80
2021/07/09 04:07:23;;;;;;;25.17;18.02;;;;;;;21.83;62.62;101636.91;6154426;23;20005;-81
2021/07/09 04:09:48;;;;;;;22.77;18.48;;;;;;;21.70;63.32;101638.41;6153795;23;20604;-80
2021/07/09 04:12:13;;;;;;;26.33;18.33;;;;;;;21.72;63.21;101632.72;6153909;23;20080;-80
2021/07/09 04:14:39;;;;;;;21.80;14.13;;;;;;;21.85;63.10;101640.28;6154576;23;20013;-80
2021/07/09 04:17:04;;;;;;;25.95;16.77;;;;;;;21.85;63.38;101635.66;6154038;23;20065;-80
2021/07/09 04:19:29;;;;;;;22.08;16.63;;;;;;;21.80;63.78;101629.91;6154067;23;20005;-80
2021/07/09 04:21:55;;;;;;;20.15;18.25;;;;;;;21.92;63.32;101635.78;6127479;23;20013;-80
2021/07/09 04:24:20;;;;;;;22.27;17.08;;;;;;;21.98;63.15;101635.88;6153757;23;20014;-81
2021/07/09 04:26:45;;;;;;;21.65;16.85;;;;;;;22.03;63.18;101635.28;6154391;23;20010;-80
2021/07/09 04:29:11;;;;;;;18.52;16.65;;;;;;;22.05;63.15;101638.69;6153611;23;20017;-81
2021/07/09 04:31:36;;;;;;;21.65;17.08;;;;;;;22.12;63.13;101636.03;6127498;23;20017;-80
2021/07/09 04:34:01;;;;;;;19.13;16.88;;;;;;;22.18;62.64;101636.16;6153847;23;20005;-80
2021/07/09 04:36:27;;;;;;;18.48;16.55;;;;;;;22.19;62.87;101639.75;6153619;23;20493;-80
2021/07/09 04:38:52;;;;;;;23.75;17.15;;;;;;;22.27;62.32;101636.91;6154811;23;20012;-81
2021/07/09 04:41:17;;;;;;;19.85;17.80;;;;;;;22.19;62.68;101637.88;6127592;23;20092;-80
2021/07/09 04:43:43;;;;;;;19.02;17.15;;;;;;;22.23;62.47;101633.72;6154603;23;20006;-80
2021/07/09 04:46:08;;;;;;;22.75;18.27;;;;;;;22.22;62.61;101629.28;6153664;23;20080;-80
2021/07/09 04:48:33;;;;;;;25.13;18.85;;;;;;;22.23;62.38;101627.38;6153775;23;20375;-80
2021/07/09 04:51:01;;;;;;;22.50;17.25;;;;;;;22.20;62.51;101625.03;6153710;23;20016;-80
2021/07/09 04:53:27;;;;;;;28.85;19.95;;;;;;;22.14;62.73;101623.88;6153883;23;20331;-80
2021/07/09 04:55:52;;;;;;;24.70;18.85;;;;;;;22.14;62.60;101621.13;6127359;23;20060;-80
2021/07/09 04:58:18;;;;;;;24.73;17.10;;;;;;;22.15;62.80;101616.47;6153766;23;20009;-80
2021/07/09 05:00:43;;;;;;;20.65;18.05;;;;;;;22.14;62.97;101612.06;6153922;23;20005;-80
2021/07/09 05:03:08;;;;;;;19.00;16.92;;;;;;;22.22;63.14;101610.09;6153565;23;20013;-81
2021/07/09 05:05:34;;;;;;;18.27;15.73;;;;;;;22.24;63.01;101618.13;6127968;23;20017;-81
2021/07/09 05:07:59;;;;;;;21.13;16.85;;;;;;;22.32;63.15;101609.78;6153737;23;20041;-80
2021/07/09 05:10:24;;;;;;;22.05;16.25;;;;;;;22.41;63.35;101614.13;6126806;23;20032;-80
2021/07/09 05:12:49;;;;;;;25.33;17.60;;;;;;;22.48;63.20;101615.03;6126884;23;20841;-80
2021/07/09 05:15:15;;;;;;;20.60;15.93;;;;;;;22.57;63.09;101609.44;6153539;23;20092;-80
2021/07/09 05:17:42;;;;;;;20.52;16.67;;;;;;;22.53;63.22;101614.47;6153955;23;20009;-80
2021/07/09 05:20:07;;;;;;;25.40;16.25;;;;;;;22.46;63.54;101608.88;6154004;23;20379;-80
2021/07/09 05:22:33;;;;;;;19.70;15.48;;;;;;;22.45;63.39;101618.16;6153694;23;20014;-81
2021/07/09 05:24:58;;;;;;;19.67;14.52;;;;;;;22.57;62.86;101610.28;6153547;23;20572;-80
2021/07/09 05:27:27;;;;;;;23.02;14.65;;;;;;;22.28;63.46;101608.47;6153448;23;20442;-80
2021/07/09 05:29:53;;;;;;;22.92;15.32;;;;;;;22.40;63.66;101606.91;6126787;23;20032;-80
2021/07/09 05:32:24;;;;;;;20.13;14.98;;;;;;;22.43;63.79;101606.53;6152982;23;20041;-80
2021/07/09 05:34:50;;;;;;;20.70;15.00;;;;;;;22.61;63.17;101608.00;6153607;23;20040;-80
2021/07/09 05:37:17;;;;;;;15.52;13.82;;;;;;;22.78;62.89;101614.09;6153377;23;20012;-80
2021/07/09 05:39:42;;;;;;;17.77;14.27;;;;;;;22.70;62.83;101617.81;6126767;23;20044;-80
2021/07/09 05:42:07;;;;;;;20.13;15.10;;;;;;;22.44;62.56;101623.84;6126933;23;20013;-81
2021/07/09 05:44:33;;;;;;;22.65;15.80;;;;;;;22.42;62.49;101621.28;6127325;23;20024;-80
2021/07/09 05:46:58;;;;;;;17.17;14.20;;;;;;;22.48;62.45;101609.56;6153770;23;20009;-81
2021/07/09 05:49:24;;;;;;;22.08;15.63;;;;;;;22.35;63.06;101611.31;6127140;23;20017;-80
2021/07/09 05:51:50;;;;;;;19.67;16.25;;;;;;;22.13;63.50;101616.69;6153564;23;20010;-80
2021/07/09 05:54:16;;;;;;;20.42;13.98;;;;;;;22.30;63.58;101614.59;6153627;23;20084;-81
2021/07/09 05:56:41;;;;;;;17.25;12.95;;;;;;;22.47;63.00;101616.09;6126886;23;20001;-81
2021/07/09 05:59:07;;;;;;;17.98;14.75;;;;;;;22.51;63.48;101623.94;6153398;23;20091;-81
2021/07/09 06:01:32;;;;;;;19.85;13.50;;;;;;;22.60;63.20;101617.28;6126485;23;20381;-81
2021/07/09 06:03:58;;;;;;;26.17;15.15;;;;;;;22.61;63.62;101624.47;6153324;23;20032;-81
2021/07/09 06:06:23;;;;;;;17.33;14.02;;;;;;;22.80;62.97;101622.97;6154126;23;20005;-81
2021/07/09 06:08:48;;;;;;;24.02;14.63;;;;;;;22.86;63.29;101623.03;6154601;23;20005;-81
2021/07/09 06:11:14;;;;;;;22.52;15.70;;;;;;;23.05;62.56;101624.34;6154785;23;20013;-81
2021/07/09 06:13:40;;;;;;;19.45;14.95;;;;;;;23.05;62.72;101618.84;6154384;23;20005;-81
2021/07/09 06:16:05;;;;;;;22.25;16.90;;;;;;;23.10;62.71;101621.81;6153321;23;20339;-81
2021/07/09 06:18:31;;;;;;;18.55;14.18;;;;;;;23.41;61.96;101626.09;6153388;23;20409;-80
2021/07/09 06:20:56;;;;;;;23.42;15.85;;;;;;;23.18;62.76;101618.13;6127382;23;20009;-80
2021/07/09 06:23:21;;;;;;;24.85;19.00;;;;;;;22.98;64.18;101617.06;6152793;23;20013;-80
2021/07/09 06:25:47;;;;;;;22.70;18.90;;;;;;;23.17;63.52;101614.53;6128106;23;20410;-81
2021/07/09 06:28:12;;;;;;;20.35;17.83;;;;;;;23.23;63.22;101612.00;6154089;23;20002;-81
2021/07/09 06:30:38;;;;;;;22.75;17.67;;;;;;;23.04;63.92;101614.38;6154501;23;20046;-82
2021/07/09 06:33:07;;;;;;;28.45;22.67;;;;;;;22.91;64.02;101609.59;6155338;23;20044;-81
2021/07/09 06:35:33;;;;;;;22.85;19.45;;;;;;;22.96;63.88;101600.81;6154224;23;20088;-81
2021/07/09 06:38:00;;;;;;;21.40;18.90;;;;;;;22.86;64.71;101609.31;6154022;23;20311;-81
2021/07/09 06:40:25;;;;;;;18.23;16.20;;;;;;;22.98;64.32;101606.94;6155006;23;20049;-81
2021/07/09 06:42:52;;;;;;;24.95;18.50;;;;;;;23.04;63.61;101613.53;6127554;23;20080;-81
2021/07/09 06:45:18;;;;;;;19.38;17.27;;;;;;;23.06;63.47;101606.81;6128008;23;20010;-81
2021/07/09 06:47:44;;;;;;;23.80;18.27;;;;;;;22.92;63.74;101608.53;6127723;23;20306;-82
2021/07/09 06:50:09;;;;;;;21.90;16.20;;;;;;;23.17;63.60;101614.53;6154066;23;20013;-81
2021/07/09 06:52:35;;;;;;;22.88;16.00;;;;;;;23.23;63.29;101620.25;6127961;23;20331;-82
2021/07/09 06:55:00;;;;;;;17.02;15.23;;;;;;;23.31;63.32;101620.97;6127124;23;20100;-82
2021/07/09 06:57:25;;;;;;;20.98;15.27;;;;;;;23.46;62.85;101615.38;6154079;23;20001;-82
2021/07/09 06:59:51;;;;;;;28.08;17.70;;;;;;;23.51;62.88;101631.25;6154155;23;20315;-82
2021/07/09 07:02:16;;;;;;;19.15;14.85;;;;;;;23.28;63.02;101629.59;6155987;23;20015;-81
2021/07/09 07:04:42;;;;;;;24.48;14.70;;;;;;;23.62;62.55;101623.31;6129304;23;20006;-82
2021/07/09 07:07:07;;;;;;;18.70;15.52;;;;;;;23.53;62.25;101618.16;6130150;23;20450;-82
2021/07/09 07:09:32;;;;;;;19.13;16.00;;;;;;;23.54;62.19;101622.59;6154669;23;20009;-81
2021/07/09 07:12:02;;;;;;;23.10;16.33;;;;;;;23.48;62.45;101629.78;6155284;23;20076;-82
2021/07/09 07:14:28;;;;;;;19.92;15.68;;;;;;;23.65;62.85;101624.81;6155856;23;20013;-82
2021/07/09 07:16:54;;;;;;;18.35;15.00;;;;;;;23.62;61.91;101616.97;6155678;23;20001;-82
2021/07/09 07:19:19;;;;;;;19.60;15.77;;;;;;;23.54;62.16;101619.84;6155638;23;20342;-81
2021/07/09 07:21:44;;;;;;;17.45;15.60;;;;;;;23.49;62.58;101611.41;6128392;23;20033;-82
2021/07/09 07:24:09;;;;;;;18.92;14.20;;;;;;;23.76;62.00;101616.06;6155576;23;20005;-82
2021/07/09 07:26:35;;;;;;;20.00;15.55;;;;;;;23.72;62.17;101617.50;6156763;23;20045;-81
2021/07/09 07:29:00;;;;;;;16.33;14.50;;;;;;;23.67;62.36;101614.47;6156520;23;20060;-81
2021/07/09 07:31:25;;;;;;;20.17;13.73;;;;;;;23.68;62.11;101618.91;6156145;23;20474;-81
2021/07/09 07:33:51;;;;;;;17.95;13.85;;;;;;;23.58;62.80;101605.53;6155615;23;20005;-82
2021/07/09 07:36:16;;;;;;;15.10;13.23;;;;;;;23.66;62.63;101610.03;6154918;23;20080;-82
2021/07/09 07:38:44;;;;;;;17.25;13.35;;;;;;;23.65;62.62;101611.06;6155363;23;20005;-82
2021/07/09 07:41:09;;;;;;;21.20;13.85;;;;;;;23.69;63.05;101604.19;6154911;23;20010;-82
2021/07/09 07:43:36;;;;;;;15.55;12.20;;;;;;;23.87;62.83;101609.13;6155601;23;20025;-81
2021/07/09 07:46:01;;;;;;;14.30;11.80;;;;;;;24.01;62.72;101599.91;6155505;23;20005;-82
2021/07/09 07:48:26;;;;;;;15.85;12.90;;;;;;;24.00;62.31;101600.97;6155136;23;20009;-82
2021/07/09 07:50:52;;;;;;;17.60;11.82;;;;;;;24.35;61.37;101603.66;6154777;23;20493;-81
2021/07/09 07:53:17;;;;;;;15.43;11.70;;;;;;;24.14;62.11;101599.13;6154617;23;20016;-81
2021/07/09 07:55:42;;;;;;;13.07;11.45;;;;;;;24.46;61.35;101602.25;6128406;23;20081;-82
2021/07/09 07:58:08;;;;;;;16.20;10.85;;;;;;;24.62;61.50;101606.53;6154171;23;20041;-82
2021/07/09 08:00:34;;;;;;;12.73;9.93;;;;;;;24.75;61.01;101607.38;6128274;23;20092;-82
2021/07/09 08:02:59;;;;;;;11.18;9.00;;;;;;;24.80;60.66;101616.94;6127727;23;20017;-82
2021/07/09 08:05:26;;;;;;;10.07;7.00;;;;;;;24.85;59.33;101622.66;6154530;23;20085;-82
2021/07/09 08:07:52;;;;;;;12.07;7.20;;;;;;;24.84;58.86;101630.06;6127295;23;20010;-82
2021/07/09 08:10:17;;;;;;;10.45;6.50;;;;;;;24.93;58.55;101626.06;6154047;23;20083;-82
2021/07/09 08:12:42;;;;;;;15.30;7.85;;;;;;;25.04;58.39;101631.97;6127365;23;20037;-82
2021/07/09 08:15:08;;;;;;;8.30;7.60;;;;;;;25.03;58.26;101628.38;6154438;23;20481;-82
2021/07/09 08:17:34;;;;;;;11.95;7.85;;;;;;;25.10;58.11;101625.63;6154140;23;20009;-82
2021/07/09 08:19:59;;;;;;;13.05;7.50;;;;;;;25.24;57.60;101621.03;6153930;23;20002;-82
2021/07/09 08:22:24;;;;;;;26.80;7.82;;;;;;;25.28;57.50;101614.03;6153711;23;20446;-82
2021/07/09 08:24:50;;;;;;;14.73;7.55;;;;;;;25.40;56.76;101612.34;6153750;23;20013;-82
2021/07/09 08:27:15;;;;;;;10.70;8.00;;;;;;;25.39;57.02;101618.91;6153340;23;20084;-82
2021/07/09 08:29:41;;;;;;;11.93;7.60;;;;;;;25.48;56.81;101625.91;6154133;23;20017;-82
2021/07/09 08:32:06;;;;;;;11.38;7.25;;;;;;;25.58;56.62;101626.31;6127446;23;20529;-82
2021/07/09 08:34:32;;;;;;;12.13;7.07;;;;;;;25.73;56.67;101615.06;6153825;23;20035;-82
2021/07/09 08:36:57;;;;;;;11.63;6.80;;;;;;;25.74;57.14;101607.63;6153922;23;20005;-82
2021/07/09 08:39:22;;;;;;;11.55;7.60;;;;;;;25.86;56.15;101600.44;6153249;23;20006;-81
2021/07/09 08:41:49;;;;;;;10.88;7.60;;;;;;;25.80;56.15;101599.34;6153204;23;20005;-82
2021/07/09 08:44:15;;;;;;;11.60;7.85;;;;;;;25.99;55.75;101596.78;6153646;23;20450;-82
2021/07/09 08:46:41;;;;;;;10.32;9.23;;;;;;;25.96;55.74;101588.94;6153417;23;20059;-82
2021/07/09 08:49:12;;;;;;;11.00;8.82;;;;;;;26.03;56.18;101587.03;6154184;23;20016;-82
2021/07/09 08:51:38;;;;;;;;;;;;;;;25.83;56.40;101592.59;6154267;23;20009;-82
2021/07/09 08:54:09;;;;;;;15.32;12.60;;;;;;;25.76;55.94;101592.59;6153764;23;19908;-82
2021/07/09 08:56:35;;;;;;;12.75;10.68;;;;;;;25.79;56.14;101594.06;6153488;23;20068;-82
2021/07/09 08:59:00;;;;;;;13.65;11.27;;;;;;;25.75;55.71;101599.16;6126884;23;20009;-82
2021/07/09 09:01:25;;;;;;;11.27;10.18;;;;;;;25.81;56.29;101597.47;6153775;23;20005;-82
2021/07/09 09:04:02;;;;;;;12.07;10.90;;;;;;;25.79;55.83;101596.81;6153811;23;20430;-82
2021/07/09 09:06:29;;;;;;;13.05;11.45;;;;;;;25.70;55.68;101592.59;6153259;23;20005;-82
2021/07/09 09:08:54;;;;;;;11.43;10.32;;;;;;;25.83;56.16;101585.16;6126964;23;20080;-82
2021/07/09 09:11:19;;;;;;;13.98;12.50;;;;;;;25.77;55.69;101582.41;6153449;23;20434;-82
2021/07/09 09:13:46;;;;;;;12.27;11.02;;;;;;;25.88;55.48;101581.78;6126357;23;20013;-82
2021/07/09 09:16:14;;;;;;;12.55;11.05;;;;;;;25.88;55.83;101571.59;6153570;23;20005;-82
2021/07/09 09:18:43;;;;;;;15.57;10.52;;;;;;;25.92;55.52;101583.03;6153033;23;20037;-82
2021/07/09 09:21:11;;;;;;;10.52;8.95;;;;;;;26.02;54.23;101575.16;6126567;23;20468;-82
2021/07/09 09:23:51;;;;;;;8.60;7.53;;;;;;;26.27;53.63;101571.66;6152765;23;20009;-81
2021/07/09 09:26:41;;;;;;;10.63;6.90;;;;;;;26.38;53.55;101581.13;6153120;23;20073;-82
2021/07/09 09:29:11;;;;;;;10.20;7.82;;;;;;;26.55;52.88;101569.41;6152630;23;20056;-82
2021/07/09 09:31:38;;;;;;;7.68;6.72;;;;;;;26.76;52.94;101575.66;6153252;23;20009;-81
2021/07/09 09:34:04;;;;;;;8.18;6.90;;;;;;;26.81;53.05;101575.81;6152691;23;20016;-82
2021/07/09 09:36:30;;;;;;;10.02;6.10;;;;;;;26.87;51.25;101565.78;6153221;23;20461;-82
2021/07/09 09:38:59;;;;;;;8.25;5.97;;;;;;;27.19;52.23;101569.41;6126825;23;20009;-82
2021/07/09 09:41:25;;;;;;;12.40;6.45;;;;;;;27.22;51.36;101567.03;6153341;23;20005;-82
2021/07/09 09:43:50;;;;;;;11.52;7.10;;;;;;;26.94;50.14;101559.16;6153277;23;20399;-82
2021/07/09 09:46:24;;;;;;;6.65;5.60;;;;;;;27.38;50.14;101567.50;6152752;23;20032;-82
2021/07/09 09:48:50;;;;;;;6.88;3.80;;;;;;;27.50;50.29;101576.75;6153223;23;20033;-82
2021/07/09 09:51:28;;;;;;;3.78;3.40;;;;;;;27.40;48.97;101577.28;6153609;23;20005;-82
2021/07/09 09:54:04;;;;;;;7.13;4.35;;;;;;;27.44;49.68;101572.13;6126197;23;20012;-82
2021/07/09 09:56:35;;;;;;;5.80;4.05;;;;;;;27.52;49.69;101582.03;6152775;23;20081;-82
2021/07/09 09:59:14;;;;;;;7.22;5.22;;;;;;;27.47;49.97;101578.03;6152883;23;20430;-82
2021/07/09 10:01:51;;;;;;;6.50;4.95;;;;;;;27.65;49.46;101570.84;6154709;23;20015;-82
2021/07/09 10:04:17;;;;;;;7.88;5.45;;;;;;;27.69;49.93;101556.34;6127218;23;20399;-82
2021/07/09 10:06:44;;;;;;;7.32;5.60;;;;;;;27.76;50.03;101560.94;6153563;23;20009;-82
2021/07/09 10:09:10;;;;;;;9.73;6.22;;;;;;;27.82;50.09;101557.28;6152795;23;20064;-82
2021/07/09 10:11:38;;;;;;;8.85;7.00;;;;;;;27.89;49.42;101558.91;6127434;23;20006;-82
2021/07/09 10:14:09;;;;;;;8.50;6.22;;;;;;;27.89;50.14;101553.38;6154332;23;20448;-82
2021/07/09 10:16:35;;;;;;;7.38;5.20;;;;;;;27.91;48.88;101566.97;6153828;23;20501;-82
2021/07/09 10:19:01;;;;;;;5.57;5.07;;;;;;;27.81;49.16;101564.75;6152701;23;20079;-82
2021/07/09 10:21:28;;;;;;;7.43;5.15;;;;;;;27.93;48.79;101562.06;6126724;23;20099;-82
2021/07/09 10:23:53;;;;;;;7.55;4.18;;;;;;;28.00;48.78;101561.97;6153250;23;20005;-82
2021/07/09 10:26:19;;;;;;;7.13;3.83;;;;;;;28.00;49.01;101559.22;6152980;23;20021;-82
2021/07/09 10:29:13;;;;;;;5.18;3.58;;;;;;;28.10;48.53;101559.50;6152392;23;20005;-82
2021/07/09 10:31:44;;;;;;;7.25;3.30;;;;;;;28.22;47.31;101556.78;6153590;23;20366;-82
2021/07/09 10:34:35;;;;;;;3.40;3.10;;;;;;;28.37;46.41;101554.44;6126315;23;20061;-82
2021/07/09 10:37:05;;;;;;;7.05;4.20;;;;;;;28.50;46.51;101557.09;6153415;23;20037;-82
2021/07/09 10:39:38;;;;;;;5.83;3.63;;;;;;;28.45;46.51;101550.56;6126281;23;20454;-82
2021/07/09 10:42:23;;;;;;;5.75;3.60;;;;;;;28.40;46.74;101560.38;6153822;23;20517;-82
2021/07/09 10:45:10;;;;;;;5.35;3.33;;;;;;;28.29;46.56;101561.16;6152992;23;20005;-82
2021/07/09 10:47:53;;;;;;;5.30;3.22;;;;;;;28.42;46.56;101560.16;6127330;23;20015;-82
2021/07/09 10:50:34;;;;;;;4.70;3.38;;;;;;;28.29;46.17;101554.78;6153200;23;20039;-82
2021/07/09 10:53:00;;;;;;;;;;;;;;;28.47;46.34;101553.91;6154103;23;20009;-82
2021/07/09 10:55:26;;;;;;;9.85;3.58;;;;;;;28.57;46.93;101559.75;6127019;23;19932;-82
2021/07/09 10:58:19;;;;;;;4.15;3.75;;;;;;;28.61;46.32;101549.88;6153633;23;20531;-82
2021/07/09 11:00:47;;;;;;;8.48;4.00;;;;;;;28.70;46.73;101558.69;6127288;23;20006;-82
2021/07/09 11:03:25;;;;;;;3.72;3.10;;;;;;;28.76;46.42;101553.06;6153265;23;20013;-82
2021/07/09 11:05:50;;;;;;;5.90;3.05;;;;;;;28.88;46.07;101549.47;6154073;23;20062;-82
2021/07/09 11:08:34;;;;;;;4.90;3.00;;;;;;;28.89;46.10;101551.97;6153596;23;20010;-82
2021/07/09 11:11:03;;;;;;;7.40;2.85;;;;;;;29.03;45.20;101547.97;6126915;23;20716;-82
2021/07/09 11:13:41;;;;;;;7.35;2.80;;;;;;;29.13;44.58;101544.59;6152978;23;20009;-82